Kit Carson, Colorado
Current Conditions -  °F | °C
As of 10:53 AM on Monday 24 Nov 2014 (Local Time) from KITR Reporting Station
Clear Clear  
Wind Chill: 35°   Ceiling: Unl
Heat Index: 44°   Visibility: 10mi
Dew Point: 14°   Wind: 25mph
Humidity: 30%   Direction: 330°NNW
Pressure: 29.92"   Gusts: 35mph
Location:  38.76°N, 102.79°W
Report Text: KITR 241753Z AUTO 33022G30KT 10SM CLR 07/M10 A2992 RMK AO2 PK WND 32035/1656 SLP140 T00671100 10067 21078 50009
Loading
Personal Weather Stations






























Interactive Weather Map New forecast layout! Learn more

10-Day Weather Forecast

Advertisements
Track Severe Weather on mobile